Time;durP1;ratioP1;P1;durP2;ratioP2;P2;SDS_P1;SDS_P2;PMS_P1;PMS_P2;Temp;Humidity;BMP_temperature;BMP_pressure;BME280_temperature;BME280_humidity;BME280_pressure;Samples;Min_cycle;Max_cycle;Signal;HPM_P1;HPM_P2
2023/06/23 00:00:52;;;;;;;1.13;1.02;;;19.00;99.90;;;;;;4983356;28;20056;-79
2023/06/23 00:03:19;;;;;;;1.30;1.00;;;19.00;99.90;;;;;;4968195;28;20528;-79
2023/06/23 00:05:46;;;;;;;1.33;0.95;;;19.10;99.90;;;;;;4968483;28;20077;-79
2023/06/23 00:08:12;;;;;;;2.22;1.30;;;19.10;99.90;;;;;;5001715;28;20484;-80
2023/06/23 00:10:39;;;;;;;1.02;0.80;;;19.20;99.90;;;;;;5001538;28;20493;-79
2023/06/23 00:13:06;;;;;;;1.02;0.80;;;19.20;99.90;;;;;;5001900;28;20050;-79
2023/06/23 00:15:33;;;;;;;2.05;1.40;;;19.20;99.90;;;;;;5001598;28;20077;-79
2023/06/23 00:18:00;;;;;;;1.50;1.05;;;19.30;99.90;;;;;;4982548;28;20124;-79
2023/06/23 00:20:27;;;;;;;1.33;1.02;;;19.40;99.90;;;;;;4985220;28;20053;-79
2023/06/23 00:22:55;;;;;;;1.52;1.10;;;19.40;99.90;;;;;;5001964;28;20046;-80
2023/06/23 00:25:21;;;;;;;1.75;1.13;;;19.40;99.90;;;;;;4962579;28;20108;-79
2023/06/23 00:27:49;;;;;;;1.75;1.25;;;19.30;99.90;;;;;;5001836;28;20046;-78
2023/06/23 00:30:15;;;;;;;1.27;0.90;;;19.30;99.90;;;;;;5001551;28;20054;-79
2023/06/23 00:32:43;;;;;;;2.05;1.23;;;19.30;99.90;;;;;;4983838;28;20049;-79
2023/06/23 00:35:13;;;;;;;1.75;1.00;;;19.30;99.90;;;;;;4952952;28;20074;-80
2023/06/23 00:37:40;;;;;;;1.35;1.02;;;19.30;99.90;;;;;;4966892;28;20254;-80
2023/06/23 00:40:10;;;;;;;1.10;0.90;;;19.40;99.90;;;;;;4984021;28;20042;-80
2023/06/23 00:42:46;;;;;;;1.75;1.00;;;19.40;99.90;;;;;;4985151;28;20133;-79
2023/06/23 00:45:13;;;;;;;1.35;1.02;;;19.40;99.90;;;;;;4949229;28;20209;-79
2023/06/23 00:47:42;;;;;;;1.83;1.15;;;19.40;99.90;;;;;;5001336;28;20045;-80
2023/06/23 00:50:13;;;;;;;1.52;1.10;;;19.40;99.90;;;;;;4968070;28;20201;-79
2023/06/23 00:52:40;;;;;;;2.03;1.00;;;19.40;99.90;;;;;;4983676;28;20108;-79
2023/06/23 00:55:07;;;;;;;1.30;1.13;;;19.40;99.90;;;;;;5000601;28;20042;-79
2023/06/23 00:57:34;;;;;;;2.15;1.20;;;19.30;99.90;;;;;;4984233;28;20345;-79
2023/06/23 01:00:01;;;;;;;1.63;1.05;;;19.30;99.90;;;;;;4983935;28;20405;-79
2023/06/23 01:02:28;;;;;;;2.30;1.30;;;19.20;99.90;;;;;;4982680;28;20498;-79
2023/06/23 01:04:55;;;;;;;1.50;1.10;;;19.20;99.90;;;;;;4967004;28;20081;-79
2023/06/23 01:07:40;;;;;;;2.03;1.27;;;19.10;99.90;;;;;;4966605;28;20123;-79
2023/06/23 01:10:14;;;;;;;1.08;0.98;;;19.10;99.90;;;;;;5000039;28;20108;-79
2023/06/23 01:12:48;;;;;;;1.80;1.27;;;19.10;99.90;;;;;;4967856;28;20505;-79
2023/06/23 01:15:20;;;;;;;1.15;1.00;;;19.00;99.90;;;;;;5000766;28;20050;-79
2023/06/23 01:18:04;;;;;;;1.55;1.20;;;18.90;99.90;;;;;;4951204;28;20104;-79
2023/06/23 01:20:33;;;;;;;1.00;0.90;;;18.90;99.90;;;;;;4982806;28;20133;-79
2023/06/23 01:23:26;;;;;;;2.05;1.23;;;18.80;99.90;;;;;;4966522;28;20054;-78
2023/06/23 01:25:54;;;;;;;1.60;1.20;;;18.80;99.90;;;;;;4982569;28;20050;-79
2023/06/23 01:28:50;;;;;;;1.33;1.10;;;18.80;99.90;;;;;;4967387;28;20057;-79
2023/06/23 01:31:25;;;;;;;1.50;1.10;;;18.80;99.90;;;;;;4966146;28;20053;-79
2023/06/23 01:33:57;;;;;;;1.42;1.00;;;18.80;99.90;;;;;;4965669;28;20046;-79
2023/06/23 01:36:38;;;;;;;1.60;1.20;;;18.80;99.90;;;;;;4969406;28;20089;-78
2023/06/23 01:39:07;;;;;;;1.00;0.80;;;18.90;99.90;;;;;;4986016;28;20120;-79
2023/06/23 01:41:38;;;;;;;1.58;1.10;;;18.90;99.90;;;;;;4970590;28;20077;-79
2023/06/23 01:44:07;;;;;;;1.33;1.08;;;18.90;99.90;;;;;;4984949;28;20121;-79
2023/06/23 01:46:35;;;;;;;2.08;1.40;;;18.90;99.90;;;;;;4970232;28;20069;-78
2023/06/23 01:49:10;;;;;;;1.35;1.10;;;18.80;99.90;;;;;;4991101;28;20891;-79
2023/06/23 01:51:39;;;;;;;1.40;1.00;;;18.70;99.90;;;;;;4977862;28;20045;-78
2023/06/23 01:54:06;;;;;;;1.50;1.10;;;18.60;99.90;;;;;;4982042;28;20046;-79
2023/06/23 01:56:34;;;;;;;2.60;1.42;;;18.60;99.90;;;;;;4982356;28;20159;-78
2023/06/23 01:59:02;;;;;;;1.70;1.20;;;18.60;99.90;;;;;;4987657;28;21137;-79
2023/06/23 02:01:30;;;;;;;1.20;0.90;;;18.70;99.90;;;;;;4981408;28;20531;-78
2023/06/23 02:03:57;;;;;;;1.67;1.25;;;18.70;99.90;;;;;;4989106;28;20807;-78
2023/06/23 02:06:24;;;;;;;1.60;1.30;;;18.70;99.90;;;;;;4992003;28;20057;-79
2023/06/23 02:08:50;;;;;;;1.42;1.23;;;18.80;99.90;;;;;;4987580;28;20084;-79
2023/06/23 02:11:17;;;;;;;1.88;1.25;;;18.80;99.90;;;;;;4971433;28;20058;-78
2023/06/23 02:13:44;;;;;;;1.52;1.33;;;18.80;99.90;;;;;;4984913;28;20100;-79
2023/06/23 02:16:11;;;;;;;1.70;1.20;;;18.80;99.90;;;;;;4988948;28;20107;-79
2023/06/23 02:18:39;;;;;;;1.65;1.30;;;18.80;99.90;;;;;;4972288;28;20410;-79
2023/06/23 02:21:05;;;;;;;1.95;1.13;;;18.70;99.90;;;;;;4972140;28;20053;-78
2023/06/23 02:23:32;;;;;;;2.15;1.42;;;18.70;99.90;;;;;;4996460;28;20050;-79
2023/06/23 02:25:59;;;;;;;1.95;1.40;;;18.60;99.90;;;;;;4972204;28;20048;-79
2023/06/23 02:28:26;;;;;;;1.35;1.15;;;18.60;99.90;;;;;;5003447;28;20053;-79
2023/06/23 02:30:53;;;;;;;2.20;1.60;;;18.60;99.90;;;;;;4988793;28;20045;-79
2023/06/23 02:33:20;;;;;;;1.67;1.30;;;18.60;99.90;;;;;;4987789;28;20049;-79
2023/06/23 02:35:47;;;;;;;1.77;1.33;;;18.50;99.90;;;;;;5005113;28;20057;-79
2023/06/23 02:38:13;;;;;;;1.88;1.30;;;18.40;99.90;;;;;;4980024;28;20112;-79
2023/06/23 02:40:40;;;;;;;1.67;1.23;;;18.20;99.90;;;;;;4987703;28;20084;-79
2023/06/23 02:43:19;;;;;;;2.20;1.48;;;18.20;99.90;;;;;;4971496;28;20481;-79
2023/06/23 02:45:47;;;;;;;1.08;0.95;;;18.10;99.90;;;;;;4986962;28;20048;-79
2023/06/23 02:48:18;;;;;;;1.38;1.10;;;18.10;99.90;;;;;;4973818;28;20125;-80
2023/06/23 02:50:45;;;;;;;2.17;1.10;;;18.00;99.90;;;;;;4992985;28;20555;-79
2023/06/23 02:53:18;;;;;;;1.90;1.30;;;17.90;99.90;;;;;;4986422;28;20042;-79
2023/06/23 02:55:45;;;;;;;1.58;1.30;;;18.00;99.90;;;;;;4992258;28;20119;-80
2023/06/23 02:58:14;;;;;;;2.13;1.30;;;18.00;99.90;;;;;;4991787;28;20054;-79
2023/06/23 03:00:42;;;;;;;2.00;1.30;;;18.00;99.90;;;;;;4976170;28;20049;-78
2023/06/23 03:03:15;;;;;;;2.40;1.45;;;18.10;99.90;;;;;;4998141;28;20058;-79
2023/06/23 03:05:43;;;;;;;2.13;1.23;;;18.10;99.90;;;;;;4972655;28;20435;-79
2023/06/23 03:08:10;;;;;;;1.50;1.10;;;18.00;99.90;;;;;;4987751;28;20404;-80
2023/06/23 03:10:38;;;;;;;1.77;1.17;;;18.00;99.90;;;;;;4999054;28;20135;-78
2023/06/23 03:13:05;;;;;;;1.70;1.20;;;17.90;99.90;;;;;;5008825;28;20046;-79
2023/06/23 03:15:32;;;;;;;3.15;1.30;;;17.80;99.90;;;;;;4992416;28;20061;-79
2023/06/23 03:18:12;;;;;;;2.03;1.20;;;17.80;99.90;;;;;;4990723;28;20135;-78
2023/06/23 03:20:45;;;;;;;2.25;1.48;;;17.70;99.90;;;;;;4976033;28;20053;-79
2023/06/23 03:23:13;;;;;;;2.33;1.60;;;17.70;99.90;;;;;;4975965;28;20054;-79
2023/06/23 03:25:43;;;;;;;1.48;1.20;;;17.70;99.90;;;;;;4975460;28;20045;-78
2023/06/23 03:28:10;;;;;;;1.88;1.40;;;17.70;99.90;;;;;;4993383;28;20507;-78
2023/06/23 03:30:44;;;;;;;1.20;1.00;;;17.60;99.90;;;;;;4983905;28;20112;-80
2023/06/23 03:33:25;;;;;;;1.48;1.35;;;17.60;99.90;;;;;;4974905;28;20180;-78
2023/06/23 03:35:52;;;;;;;1.50;1.10;;;17.60;99.90;;;;;;4996932;28;20073;-78
2023/06/23 03:38:21;;;;;;;1.65;1.20;;;17.50;99.90;;;;;;4993846;28;20128;-78
2023/06/23 03:40:53;;;;;;;1.60;1.40;;;17.50;99.90;;;;;;4993018;28;20046;-79
2023/06/23 03:43:25;;;;;;;1.30;1.10;;;17.40;99.90;;;;;;4993271;28;20566;-80
2023/06/23 03:45:53;;;;;;;1.83;1.33;;;17.40;99.90;;;;;;5007175;28;20049;-79
2023/06/23 03:48:20;;;;;;;1.83;1.10;;;17.30;99.90;;;;;;4993831;28;20049;-79
2023/06/23 03:50:48;;;;;;;2.25;1.60;;;17.30;99.90;;;;;;4978750;28;20049;-80
2023/06/23 03:53:15;;;;;;;1.63;1.30;;;17.20;99.90;;;;;;4996394;28;20564;-80
2023/06/23 03:55:41;;;;;;;1.33;1.05;;;17.20;99.90;;;;;;4990574;28;20147;-79
2023/06/23 03:58:08;;;;;;;1.73;1.50;;;17.30;99.90;;;;;;4994261;28;20054;-80
2023/06/23 04:00:36;;;;;;;1.50;1.27;;;17.20;99.90;;;;;;4990721;28;20408;-80
2023/06/23 04:03:07;;;;;;;4.03;1.80;;;17.20;99.90;;;;;;4989727;28;20053;-80
2023/06/23 04:05:35;;;;;;;1.75;1.30;;;17.30;99.90;;;;;;5007827;28;20454;-79
2023/06/23 04:08:02;;;;;;;2.63;1.88;;;17.30;99.90;;;;;;4974920;28;20053;-78
2023/06/23 04:10:29;;;;;;;1.65;1.30;;;17.30;99.90;;;;;;4979665;28;20049;-78
2023/06/23 04:12:56;;;;;;;2.13;1.60;;;17.30;99.90;;;;;;4990644;28;20062;-79
2023/06/23 04:15:24;;;;;;;1.70;1.30;;;17.20;99.90;;;;;;4977796;28;20658;-79
2023/06/23 04:17:52;;;;;;;1.23;1.00;;;17.20;99.90;;;;;;4989637;28;20132;-79
2023/06/23 04:20:19;;;;;;;2.42;1.45;;;17.20;99.90;;;;;;4978998;28;20052;-78
2023/06/23 04:22:46;;;;;;;1.83;1.48;;;17.20;99.90;;;;;;4990620;28;20061;-80
2023/06/23 04:25:12;;;;;;;1.83;1.52;;;17.10;99.90;;;;;;5003682;28;20041;-79
2023/06/23 04:27:42;;;;;;;1.38;1.15;;;17.00;99.90;;;;;;4978530;28;20065;-79
2023/06/23 04:30:09;;;;;;;1.50;1.20;;;17.10;99.90;;;;;;4987733;28;20049;-78
2023/06/23 04:32:37;;;;;;;1.70;1.50;;;17.10;99.90;;;;;;4961975;28;20140;-78
2023/06/23 04:35:04;;;;;;;2.15;1.27;;;17.20;99.90;;;;;;4989939;28;20104;-80
2023/06/23 04:37:31;;;;;;;2.25;1.30;;;17.30;99.90;;;;;;4989906;28;20523;-79
2023/06/23 04:40:21;;;;;;;1.85;1.40;;;17.40;99.90;;;;;;4989594;28;20057;-79
2023/06/23 04:42:53;;;;;;;1.60;1.30;;;17.40;99.90;;;;;;4961442;28;20057;-79
2023/06/23 04:45:23;;;;;;;1.77;1.10;;;17.40;99.90;;;;;;4974356;28;20058;-77
2023/06/23 04:47:56;;;;;;;1.60;1.20;;;17.40;99.90;;;;;;4980576;28;20057;-78
2023/06/23 04:50:24;;;;;;;1.50;1.20;;;17.40;99.90;;;;;;4984768;28;20061;-79
2023/06/23 04:52:53;;;;;;;1.65;1.27;;;17.50;99.90;;;;;;4990848;28;20136;-78
2023/06/23 04:55:21;;;;;;;1.45;1.10;;;17.60;99.90;;;;;;4992773;28;20128;-79
2023/06/23 04:57:48;;;;;;;2.00;1.30;;;17.60;99.90;;;;;;4971598;28;20053;-79
2023/06/23 05:00:17;;;;;;;2.15;1.33;;;17.70;99.90;;;;;;4955737;28;20454;-79
2023/06/23 05:02:45;;;;;;;1.52;1.30;;;17.70;99.90;;;;;;4982791;28;20104;-79
2023/06/23 05:05:14;;;;;;;1.40;1.20;;;17.80;99.90;;;;;;4983842;28;20473;-79
2023/06/23 05:07:40;;;;;;;1.90;1.30;;;17.80;99.90;;;;;;4983204;28;20054;-80
2023/06/23 05:10:07;;;;;;;1.70;1.27;;;17.80;99.90;;;;;;4982053;28;20081;-79
2023/06/23 05:12:34;;;;;;;2.15;1.50;;;17.90;99.90;;;;;;5001392;28;20058;-78
2023/06/23 05:15:01;;;;;;;1.63;1.25;;;18.00;99.90;;;;;;4969935;28;20353;-79
2023/06/23 05:17:28;;;;;;;1.73;1.55;;;18.00;99.90;;;;;;4951437;28;20104;-79
2023/06/23 05:19:55;;;;;;;2.70;1.13;;;18.10;99.90;;;;;;4983402;28;20069;-79
2023/06/23 05:22:22;;;;;;;1.80;1.55;;;18.10;99.90;;;;;;4981571;28;20053;-79
2023/06/23 05:24:53;;;;;;;1.77;1.35;;;18.10;99.90;;;;;;4982968;28;20440;-78
2023/06/23 05:27:23;;;;;;;3.10;1.83;;;18.20;99.90;;;;;;4982375;28;20050;-79
2023/06/23 05:29:51;;;;;;;2.03;1.70;;;18.30;99.90;;;;;;4970401;28;20088;-79
2023/06/23 05:32:18;;;;;;;1.50;1.02;;;18.40;99.90;;;;;;4963656;28;20571;-80
2023/06/23 05:34:46;;;;;;;1.63;1.33;;;18.40;99.90;;;;;;4984126;28;20100;-79
2023/06/23 05:37:13;;;;;;;1.40;1.05;;;18.50;99.90;;;;;;4986542;28;20049;-79
2023/06/23 05:39:40;;;;;;;1.15;0.98;;;18.60;99.90;;;;;;4985225;28;20046;-79
2023/06/23 05:42:07;;;;;;;1.75;1.33;;;18.60;99.90;;;;;;4986315;28;20488;-79
2023/06/23 05:44:34;;;;;;;1.25;1.15;;;18.70;99.90;;;;;;5004073;28;20104;-79
2023/06/23 05:47:00;;;;;;;2.17;1.52;;;18.80;99.90;;;;;;4986196;28;20413;-79
2023/06/23 05:49:27;;;;;;;1.50;1.20;;;18.80;99.90;;;;;;4954749;28;20061;-79
2023/06/23 05:51:57;;;;;;;1.98;1.40;;;18.90;99.90;;;;;;4970356;28;20074;-80
2023/06/23 05:54:26;;;;;;;1.70;1.30;;;19.00;99.90;;;;;;4954090;28;20666;-79
2023/06/23 05:57:00;;;;;;;1.33;1.20;;;19.00;99.90;;;;;;4977709;28;20131;-80
2023/06/23 05:59:44;;;;;;;1.63;1.40;;;19.10;99.90;;;;;;4986133;28;20054;-79
2023/06/23 06:02:21;;;;;;;1.40;1.20;;;19.30;99.90;;;;;;4969729;28;20058;-80
2023/06/23 06:04:49;;;;;;;1.75;1.35;;;19.40;99.90;;;;;;4971799;28;20045;-80
2023/06/23 06:07:16;;;;;;;1.55;1.05;;;19.50;99.90;;;;;;4987364;28;20158;-78
2023/06/23 06:09:43;;;;;;;1.20;1.08;;;19.60;99.90;;;;;;4999354;28;20058;-78
2023/06/23 06:12:10;;;;;;;1.17;1.08;;;19.70;99.90;;;;;;4976845;28;20073;-78
2023/06/23 06:14:37;;;;;;;1.55;1.20;;;19.80;99.90;;;;;;4965985;28;20054;-79
2023/06/23 06:17:06;;;;;;;1.38;1.10;;;19.90;99.90;;;;;;4999071;28;20492;-78
2023/06/23 06:19:33;;;;;;;1.60;1.50;;;20.00;99.90;;;;;;4984358;28;20049;-78
2023/06/23 06:21:59;;;;;;;1.38;1.10;;;20.10;99.90;;;;;;4986204;28;20343;-78
2023/06/23 06:24:26;;;;;;;1.52;1.23;;;20.10;99.90;;;;;;4955954;28;20054;-78
2023/06/23 06:26:56;;;;;;;1.45;1.02;;;20.20;99.90;;;;;;4985833;28;20160;-79
2023/06/23 06:29:23;;;;;;;1.35;1.15;;;20.30;99.90;;;;;;4974294;28;20056;-79
2023/06/23 06:31:50;;;;;;;1.20;1.08;;;20.40;99.90;;;;;;4973054;28;20053;-79
2023/06/23 06:34:17;;;;;;;1.63;1.20;;;20.50;99.90;;;;;;4990814;28;20077;-79
2023/06/23 06:36:44;;;;;;;2.15;1.38;;;20.60;99.90;;;;;;4997421;28;20050;-78
2023/06/23 06:39:11;;;;;;;2.38;1.38;;;20.70;99.90;;;;;;5010795;28;20057;-78
2023/06/23 06:41:37;;;;;;;1.80;1.60;;;20.80;99.90;;;;;;4990226;28;20397;-78
2023/06/23 06:44:04;;;;;;;2.00;1.30;;;20.90;99.90;;;;;;4998992;28;20187;-73
2023/06/23 06:46:31;;;;;;;1.40;1.25;;;21.00;99.90;;;;;;4975983;28;20085;-73
2023/06/23 06:48:58;;;;;;;1.60;1.33;;;21.10;99.90;;;;;;4994927;28;20513;-73
2023/06/23 06:51:25;;;;;;;1.45;1.27;;;21.20;99.90;;;;;;4993560;28;20054;-73
2023/06/23 06:53:52;;;;;;;1.65;1.40;;;21.20;99.90;;;;;;4992635;28;20096;-73
2023/06/23 06:56:19;;;;;;;1.80;1.40;;;21.20;99.90;;;;;;5000298;28;20353;-72
2023/06/23 06:58:46;;;;;;;1.20;1.10;;;21.20;99.90;;;;;;4997910;28;20049;-73
2023/06/23 07:01:13;;;;;;;1.50;1.35;;;21.30;99.90;;;;;;5007576;28;20559;-73
2023/06/23 07:03:42;;;;;;;1.60;1.30;;;21.40;99.90;;;;;;4997511;28;20067;-73
2023/06/23 07:06:09;;;;;;;1.33;1.23;;;21.40;99.90;;;;;;4989022;28;20046;-73
2023/06/23 07:08:38;;;;;;;1.90;1.30;;;21.50;99.90;;;;;;5001831;28;20488;-74
2023/06/23 07:11:05;;;;;;;2.05;1.58;;;21.60;99.90;;;;;;4976018;28;20050;-74
2023/06/23 07:13:32;;;;;;;1.42;1.17;;;21.70;99.90;;;;;;5007581;28;20057;-74
2023/06/23 07:15:58;;;;;;;1.90;1.33;;;21.80;99.90;;;;;;4975582;28;20129;-74
2023/06/23 07:18:25;;;;;;;1.42;1.20;;;21.90;99.90;;;;;;5005747;28;20064;-74
2023/06/23 07:20:52;;;;;;;1.67;1.40;;;22.10;99.90;;;;;;5006155;28;20054;-74
2023/06/23 07:23:19;;;;;;;1.75;1.48;;;22.20;99.90;;;;;;4995259;28;20092;-74
2023/06/23 07:25:45;;;;;;;2.05;1.48;;;22.30;99.90;;;;;;5004346;28;20042;-73
2023/06/23 07:28:12;;;;;;;1.60;1.35;;;22.50;99.90;;;;;;4995636;28;20124;-73
2023/06/23 07:30:39;;;;;;;1.33;1.17;;;22.60;99.90;;;;;;4996937;28;20140;-73
2023/06/23 07:33:06;;;;;;;1.40;1.30;;;22.70;99.90;;;;;;5006789;28;21485;-73
2023/06/23 07:35:33;;;;;;;1.90;1.35;;;22.80;99.90;;;;;;5006058;28;20053;-74
2023/06/23 07:38:01;;;;;;;1.98;1.40;;;22.80;99.90;;;;;;4971636;28;20061;-74
2023/06/23 07:40:28;;;;;;;2.08;1.70;;;22.80;99.90;;;;;;5006372;28;20081;-74
2023/06/23 07:42:55;;;;;;;1.60;1.20;;;22.80;99.90;;;;;;4978820;28;20057;-78
2023/06/23 07:45:22;;;;;;;1.55;1.40;;;22.70;99.90;;;;;;4975987;28;20085;-79
2023/06/23 07:47:48;;;;;;;1.70;1.30;;;22.60;99.90;;;;;;4990698;28;20054;-79
2023/06/23 07:50:15;;;;;;;1.50;1.20;;;22.40;99.90;;;;;;4988174;28;20547;-79
2023/06/23 07:52:43;;;;;;;1.40;1.20;;;22.40;99.90;;;;;;4988357;28;20450;-79
2023/06/23 07:55:10;;;;;;;1.63;1.15;;;22.30;99.90;;;;;;4988962;28;20049;-82
2023/06/23 07:57:37;;;;;;;1.92;1.40;;;22.30;99.90;;;;;;4990476;28;20135;-78
2023/06/23 08:00:04;;;;;;;1.40;1.13;;;22.30;99.90;;;;;;5003211;28;20083;-79
2023/06/23 08:02:31;;;;;;;1.45;1.13;;;22.40;99.90;;;;;;5004642;28;20509;-79
2023/06/23 08:04:58;;;;;;;1.45;1.05;;;22.50;99.90;;;;;;4987356;28;20054;-79
2023/06/23 08:07:25;;;;;;;1.77;1.30;;;22.50;99.90;;;;;;4971009;28;20057;-79
2023/06/23 08:09:52;;;;;;;1.30;1.08;;;22.60;99.90;;;;;;5003735;28;20086;-79
2023/06/23 08:12:18;;;;;;;1.75;1.33;;;22.90;99.90;;;;;;5003572;28;20046;-79
2023/06/23 08:14:45;;;;;;;1.60;1.15;;;23.10;99.90;;;;;;5003810;28;20046;-79
2023/06/23 08:17:12;;;;;;;2.17;1.15;;;23.20;99.90;;;;;;5001950;28;20077;-79
2023/06/23 08:19:41;;;;;;;1.52;1.10;;;23.20;99.90;;;;;;4983763;28;20089;-79
2023/06/23 08:22:08;;;;;;;1.52;1.10;;;23.20;99.90;;;;;;4952751;28;20046;-79
2023/06/23 08:24:35;;;;;;;2.30;1.33;;;23.30;99.90;;;;;;5000897;28;20050;-78
2023/06/23 08:27:02;;;;;;;1.25;1.02;;;23.40;99.90;;;;;;4982889;28;20054;-78
2023/06/23 08:29:28;;;;;;;1.13;0.98;;;23.40;99.90;;;;;;4953767;28;20104;-78
2023/06/23 08:31:55;;;;;;;1.60;1.10;;;23.50;99.90;;;;;;5002994;28;20050;-78
2023/06/23 08:34:22;;;;;;;1.40;1.30;;;23.50;99.90;;;;;;4970116;28;20760;-78
2023/06/23 08:36:49;;;;;;;1.60;1.30;;;23.50;99.90;;;;;;4970109;28;20064;-77
2023/06/23 08:39:15;;;;;;;1.48;1.23;;;23.40;99.90;;;;;;4984572;28;20698;-78
2023/06/23 08:41:42;;;;;;;1.88;1.50;;;23.40;99.90;;;;;;4985754;28;20613;-78
2023/06/23 08:44:11;;;;;;;1.75;1.52;;;23.40;99.90;;;;;;4971422;28;20061;-77
2023/06/23 08:46:37;;;;;;;2.35;1.60;;;23.50;99.90;;;;;;4970936;28;20494;-78
2023/06/23 08:49:22;;;;;;;2.65;1.60;;;23.60;99.90;;;;;;4976273;28;20140;-78
2023/06/23 08:51:49;;;;;;;2.17;1.65;;;23.80;99.90;;;;;;4968696;28;20046;-78
2023/06/23 08:54:16;;;;;;;1.65;1.33;;;24.00;99.90;;;;;;4983787;28;20058;-78
2023/06/23 08:56:44;;;;;;;2.08;1.50;;;24.10;99.90;;;;;;4987275;28;20260;-78
2023/06/23 08:59:10;;;;;;;3.22;2.00;;;24.10;99.90;;;;;;4972318;28;20107;-78
2023/06/23 09:01:37;;;;;;;2.60;1.83;;;24.00;99.90;;;;;;4985342;28;20154;-78
2023/06/23 09:04:04;;;;;;;2.22;1.83;;;24.10;99.90;;;;;;4974447;28;20144;-78
2023/06/23 09:06:35;;;;;;;1.80;1.60;;;24.10;99.90;;;;;;4972155;28;20097;-78
2023/06/23 09:09:02;;;;;;;1.45;1.23;;;24.10;99.90;;;;;;5003843;28;20061;-77
2023/06/23 09:11:29;;;;;;;1.65;1.45;;;24.20;99.90;;;;;;4985204;28;20116;-77
2023/06/23 09:13:56;;;;;;;1.58;1.48;;;24.30;99.90;;;;;;4970780;28;20042;-78
2023/06/23 09:16:22;;;;;;;1.75;1.40;;;24.30;99.90;;;;;;4985280;28;20076;-77
2023/06/23 09:18:49;;;;;;;2.50;1.80;;;24.40;99.90;;;;;;4986497;28;20057;-77
2023/06/23 09:21:16;;;;;;;2.13;1.70;;;24.40;99.90;;;;;;4972647;28;20065;-77
2023/06/23 09:24:02;;;;;;;2.47;2.15;;;24.40;99.90;;;;;;4983374;28;20061;-77
2023/06/23 09:26:29;;;;;;;2.65;2.10;;;24.20;99.90;;;;;;4952442;28;20058;-78
2023/06/23 09:29:18;;;;;;;1.90;1.73;;;24.20;99.90;;;;;;4981873;28;20112;-77
2023/06/23 09:31:47;;;;;;;2.90;2.05;;;24.20;99.90;;;;;;4978283;28;20085;-78
2023/06/23 09:34:26;;;;;;;2.58;2.00;;;24.30;99.80;;;;;;4962978;28;20796;-79
2023/06/23 09:36:53;;;;;;;2.33;1.70;;;24.50;99.90;;;;;;4982103;28;20053;-78
2023/06/23 09:39:20;;;;;;;1.70;1.50;;;24.60;99.90;;;;;;4986052;28;20116;-78
2023/06/23 09:41:54;;;;;;;2.10;1.77;;;24.80;99.90;;;;;;4946164;28;20065;-79
2023/06/23 09:44:21;;;;;;;2.17;1.98;;;24.90;99.50;;;;;;4987349;28;20811;-76
2023/06/23 09:46:58;;;;;;;2.15;1.85;;;24.90;99.30;;;;;;4999550;28;20073;-78
2023/06/23 09:49:25;;;;;;;1.73;1.48;;;25.00;99.60;;;;;;4995452;28;20452;-78
2023/06/23 09:51:51;;;;;;;1.60;1.45;;;25.20;98.80;;;;;;5003755;28;20073;-77
2023/06/23 09:54:36;;;;;;;2.20;1.75;;;25.40;98.00;;;;;;4988281;28;20115;-77
2023/06/23 09:57:12;;;;;;;3.08;1.80;;;25.60;98.00;;;;;;4973933;28;20050;-78
2023/06/23 09:59:40;;;;;;;2.40;1.95;;;25.60;98.10;;;;;;4976437;28;20104;-78
2023/06/23 10:02:07;;;;;;;1.65;1.45;;;25.50;97.70;;;;;;4989345;28;20042;-78
2023/06/23 10:04:35;;;;;;;2.03;1.38;;;25.70;97.90;;;;;;4985388;28;20129;-77
2023/06/23 10:07:24;;;;;;;1.80;1.42;;;25.70;97.00;;;;;;4986289;28;20041;-78
2023/06/23 10:09:56;;;;;;;1.75;1.45;;;25.80;96.70;;;;;;4985826;28;20048;-78
2023/06/23 10:12:42;;;;;;;2.03;1.70;;;25.80;95.50;;;;;;4984684;28;21909;-78
2023/06/23 10:15:10;;;;;;;1.50;1.40;;;25.80;95.80;;;;;;4963584;28;20050;-81
2023/06/23 10:17:37;;;;;;;1.88;1.50;;;25.90;95.90;;;;;;4954570;28;20054;-78
2023/06/23 10:20:05;;;;;;;1.80;1.48;;;26.00;95.50;;;;;;4946840;28;20103;-77
2023/06/23 10:22:32;;;;;;;1.58;1.48;;;25.90;95.70;;;;;;4957414;28;20148;-78
2023/06/23 10:24:59;;;;;;;1.77;1.38;;;25.90;95.70;;;;;;4959666;28;20050;-79
2023/06/23 10:27:27;;;;;;;1.85;1.50;;;26.10;95.60;;;;;;4943901;28;20873;-78
2023/06/23 10:29:55;;;;;;;1.85;1.50;;;26.10;95.40;;;;;;5003074;28;20520;-79
2023/06/23 10:32:34;;;;;;;2.08;1.80;;;26.30;94.40;;;;;;5002376;28;20046;-79
2023/06/23 10:35:06;;;;;;;1.58;1.40;;;26.20;94.70;;;;;;4969275;28;20493;-78
2023/06/23 10:37:33;;;;;;;1.77;1.60;;;26.20;94.70;;;;;;4953673;28;20577;-78
2023/06/23 10:40:11;;;;;;;1.83;1.40;;;26.40;94.90;;;;;;4990161;28;20050;-78
2023/06/23 10:42:38;;;;;;;1.65;1.30;;;26.40;94.90;;;;;;4963741;28;20556;-79
2023/06/23 10:45:08;;;;;;;2.78;1.38;;;26.50;94.60;;;;;;4962941;28;20486;-78
2023/06/23 10:47:35;;;;;;;1.60;1.40;;;26.50;94.40;;;;;;5005155;28;20428;-78
2023/06/23 10:50:02;;;;;;;2.30;1.80;;;26.50;94.30;;;;;;4995204;28;20085;-79
2023/06/23 10:52:28;;;;;;;1.50;1.40;;;26.50;93.70;;;;;;4969691;28;20065;-79
2023/06/23 10:54:55;;;;;;;2.05;1.85;;;26.40;93.50;;;;;;4982111;28;20122;-78
2023/06/23 10:57:22;;;;;;;1.90;1.55;;;26.40;93.90;;;;;;4978599;28;20651;-79
2023/06/23 10:59:59;;;;;;;1.40;1.10;;;26.60;93.50;;;;;;4967962;28;20390;-78
2023/06/23 11:02:29;;;;;;;1.55;1.30;;;26.70;93.60;;;;;;4945803;28;20062;-79
2023/06/23 11:04:58;;;;;;;2.08;1.38;;;26.80;92.80;;;;;;4977996;28;20452;-79
2023/06/23 11:07:25;;;;;;;1.40;1.30;;;26.90;91.70;;;;;;4970679;28;20085;-78
2023/06/23 11:09:55;;;;;;;1.65;1.27;;;26.70;91.40;;;;;;4969675;28;20050;-78
2023/06/23 11:12:40;;;;;;;1.73;1.20;;;26.60;91.60;;;;;;5003979;28;20179;-79
2023/06/23 11:15:15;;;;;;;1.35;1.23;;;26.70;92.30;;;;;;5015750;28;20053;-79
2023/06/23 11:17:46;;;;;;;2.33;1.70;;;26.80;92.20;;;;;;5002375;28;20079;-79
2023/06/23 11:20:19;;;;;;;1.85;1.35;;;26.90;92.90;;;;;;4988064;28;20069;-79
2023/06/23 11:23:00;;;;;;;1.92;1.40;;;27.10;92.80;;;;;;4982658;28;20049;-79
2023/06/23 11:25:33;;;;;;;1.88;1.50;;;27.30;92.60;;;;;;5001201;28;20112;-78
2023/06/23 11:28:22;;;;;;;1.55;1.38;;;27.70;92.50;;;;;;4999935;28;20073;-76
2023/06/23 11:31:12;;;;;;;1.77;1.27;;;27.90;92.10;;;;;;5014032;28;20541;-77
2023/06/23 11:33:58;;;;;;;1.38;1.17;;;28.10;92.50;;;;;;4986567;28;20138;-76
2023/06/23 11:36:26;;;;;;;1.70;1.23;;;28.20;92.10;;;;;;5003813;28;20054;-76
2023/06/23 11:38:55;;;;;;;1.55;1.35;;;27.90;91.40;;;;;;4988881;28;20155;-77
2023/06/23 11:41:29;;;;;;;2.05;1.50;;;27.90;92.00;;;;;;4985703;28;20121;-78
2023/06/23 11:44:01;;;;;;;1.65;1.23;;;27.80;91.00;;;;;;4979629;28;20493;-77
2023/06/23 11:46:32;;;;;;;1.45;1.00;;;27.90;91.40;;;;;;4961287;28;20042;-76
2023/06/23 11:49:10;;;;;;;2.13;1.52;;;28.20;86.80;;;;;;4966972;28;20488;-78
2023/06/23 11:51:36;;;;;;;2.08;1.55;;;28.30;86.90;;;;;;4997512;28;20049;-80
2023/06/23 11:54:07;;;;;;;1.67;1.48;;;28.30;87.90;;;;;;4984965;28;20060;-79
2023/06/23 11:56:34;;;;;;;1.98;1.60;;;28.30;89.80;;;;;;4982320;28;20077;-80
2023/06/23 11:59:02;;;;;;;1.75;1.45;;;28.10;90.30;;;;;;4968905;28;20065;-79
2023/06/23 12:01:29;;;;;;;1.55;1.45;;;28.10;90.00;;;;;;4997591;28;20060;-77
2023/06/23 12:03:56;;;;;;;1.38;1.10;;;28.00;90.10;;;;;;5001552;28;20108;-78
2023/06/23 12:06:24;;;;;;;1.98;1.50;;;28.00;90.40;;;;;;5000542;28;20358;-78
2023/06/23 12:08:52;;;;;;;1.40;1.20;;;28.20;90.20;;;;;;4997668;28;20049;-78
2023/06/23 12:11:22;;;;;;;1.45;1.30;;;28.10;90.80;;;;;;5006248;28;20076;-79
2023/06/23 12:13:52;;;;;;;1.85;1.30;;;28.10;87.20;;;;;;4998844;28;20056;-78
2023/06/23 12:16:19;;;;;;;1.50;1.33;;;28.20;88.40;;;;;;4969082;28;20055;-78
2023/06/23 12:18:46;;;;;;;1.60;1.50;;;28.20;88.70;;;;;;4993811;28;20145;-77
2023/06/23 12:21:14;;;;;;;1.35;1.17;;;28.40;89.40;;;;;;4971766;28;20174;-77
2023/06/23 12:23:43;;;;;;;1.60;1.50;;;28.70;89.40;;;;;;4988626;28;20054;-76
2023/06/23 12:26:10;;;;;;;2.30;1.40;;;29.10;88.30;;;;;;5013916;28;20203;-77
2023/06/23 12:28:37;;;;;;;1.38;1.20;;;29.10;86.60;;;;;;4984491;28;20740;-77
2023/06/23 12:31:04;;;;;;;1.42;1.30;;;29.00;86.10;;;;;;4980226;28;20870;-77
2023/06/23 12:33:34;;;;;;;1.67;1.15;;;29.20;84.10;;;;;;4985986;28;20099;-78
2023/06/23 12:36:03;;;;;;;1.20;1.10;;;29.30;82.10;;;;;;5002906;28;20448;-77
2023/06/23 12:38:37;;;;;;;1.40;1.13;;;29.40;79.60;;;;;;4979814;28;20050;-78
2023/06/23 12:41:20;;;;;;;0.90;0.90;;;29.40;77.70;;;;;;4968423;28;20046;-78
2023/06/23 12:43:52;;;;;;;1.13;0.90;;;29.60;77.80;;;;;;4982809;28;20111;-78
2023/06/23 12:46:24;;;;;;;1.15;0.98;;;29.90;77.30;;;;;;4995634;28;20099;-79
2023/06/23 12:48:51;;;;;;;1.63;1.23;;;30.20;78.20;;;;;;4966493;28;20053;-78
2023/06/23 12:51:18;;;;;;;1.02;0.93;;;30.30;76.00;;;;;;4984050;28;20500;-78
2023/06/23 12:53:45;;;;;;;1.25;0.98;;;30.40;75.80;;;;;;4963090;28;20062;-81
2023/06/23 12:56:12;;;;;;;1.15;1.00;;;30.70;77.70;;;;;;4979332;28;20053;-79
2023/06/23 12:58:39;;;;;;;0.90;0.90;;;31.30;76.80;;;;;;5001705;28;20164;-80